sensor_id;sensor_type;location;lat;lon;timestamp;P1;durP1;ratioP1;P2;durP2;ratioP2
69594;SDS011;56800;52.142;5.364;2024-01-30T00:01:57;14.82;;;8.65;;
69594;SDS011;56800;52.142;5.364;2024-01-30T00:04:24;12.85;;;8.45;;
69594;SDS011;56800;52.142;5.364;2024-01-30T00:06:51;16.03;;;9.03;;
69594;SDS011;56800;52.142;5.364;2024-01-30T00:09:19;14.18;;;8.65;;
69594;SDS011;56800;52.142;5.364;2024-01-30T00:11:46;15.73;;;8.77;;
69594;SDS011;56800;52.142;5.364;2024-01-30T00:14:12;15.38;;;8.77;;
69594;SDS011;56800;52.142;5.364;2024-01-30T00:16:40;14.52;;;8.68;;
69594;SDS011;56800;52.142;5.364;2024-01-30T00:19:07;13.50;;;8.37;;
69594;SDS011;56800;52.142;5.364;2024-01-30T00:21:34;16.08;;;8.30;;
69594;SDS011;56800;52.142;5.364;2024-01-30T00:24:01;15.52;;;8.30;;
69594;SDS011;56800;52.142;5.364;2024-01-30T00:26:28;17.38;;;7.97;;
69594;SDS011;56800;52.142;5.364;2024-01-30T00:28:55;14.68;;;8.60;;
69594;SDS011;56800;52.142;5.364;2024-01-30T00:31:21;15.13;;;8.40;;
69594;SDS011;56800;52.142;5.364;2024-01-30T00:33:48;13.35;;;8.23;;
69594;SDS011;56800;52.142;5.364;2024-01-30T00:36:15;13.75;;;8.40;;
69594;SDS011;56800;52.142;5.364;2024-01-30T00:38:42;13.73;;;8.55;;
69594;SDS011;56800;52.142;5.364;2024-01-30T00:41:08;15.32;;;8.45;;
69594;SDS011;56800;52.142;5.364;2024-01-30T00:43:36;14.90;;;8.97;;
69594;SDS011;56800;52.142;5.364;2024-01-30T00:46:03;12.95;;;8.48;;
69594;SDS011;56800;52.142;5.364;2024-01-30T00:48:30;16.15;;;9.18;;
69594;SDS011;56800;52.142;5.364;2024-01-30T00:50:56;15.13;;;9.15;;
69594;SDS011;56800;52.142;5.364;2024-01-30T00:53:23;14.55;;;8.65;;
69594;SDS011;56800;52.142;5.364;2024-01-30T00:55:50;13.53;;;8.40;;
69594;SDS011;56800;52.142;5.364;2024-01-30T00:58:16;17.75;;;8.23;;
69594;SDS011;56800;52.142;5.364;2024-01-30T01:00:45;12.88;;;8.02;;
69594;SDS011;56800;52.142;5.364;2024-01-30T01:03:12;15.32;;;8.25;;
69594;SDS011;56800;52.142;5.364;2024-01-30T01:05:40;15.77;;;8.90;;
69594;SDS011;56800;52.142;5.364;2024-01-30T01:08:07;13.90;;;8.50;;
69594;SDS011;56800;52.142;5.364;2024-01-30T01:10:33;15.65;;;8.18;;
69594;SDS011;56800;52.142;5.364;2024-01-30T01:13:00;14.20;;;8.40;;
69594;SDS011;56800;52.142;5.364;2024-01-30T01:15:27;14.57;;;8.68;;
69594;SDS011;56800;52.142;5.364;2024-01-30T01:17:55;17.55;;;9.55;;
69594;SDS011;56800;52.142;5.364;2024-01-30T01:20:22;16.10;;;8.90;;
69594;SDS011;56800;52.142;5.364;2024-01-30T01:22:49;15.15;;;8.70;;
69594;SDS011;56800;52.142;5.364;2024-01-30T01:25:16;15.98;;;8.60;;
69594;SDS011;56800;52.142;5.364;2024-01-30T01:27:43;15.10;;;9.10;;
69594;SDS011;56800;52.142;5.364;2024-01-30T01:30:17;14.32;;;9.00;;
69594;SDS011;56800;52.142;5.364;2024-01-30T01:32:48;16.93;;;9.23;;
69594;SDS011;56800;52.142;5.364;2024-01-30T01:35:24;16.15;;;9.65;;
69594;SDS011;56800;52.142;5.364;2024-01-30T01:37:52;13.85;;;8.43;;
69594;SDS011;56800;52.142;5.364;2024-01-30T01:40:24;15.18;;;9.43;;
69594;SDS011;56800;52.142;5.364;2024-01-30T01:42:52;15.98;;;9.43;;
69594;SDS011;56800;52.142;5.364;2024-01-30T01:45:21;15.63;;;9.63;;
69594;SDS011;56800;52.142;5.364;2024-01-30T01:47:49;16.95;;;9.50;;
69594;SDS011;56800;52.142;5.364;2024-01-30T01:50:17;15.20;;;9.55;;
69594;SDS011;56800;52.142;5.364;2024-01-30T01:52:47;18.02;;;9.52;;
69594;SDS011;56800;52.142;5.364;2024-01-30T01:55:14;13.65;;;9.02;;
69594;SDS011;56800;52.142;5.364;2024-01-30T01:57:44;18.03;;;9.53;;
69594;SDS011;56800;52.142;5.364;2024-01-30T02:00:12;15.13;;;8.70;;
69594;SDS011;56800;52.142;5.364;2024-01-30T02:02:40;18.23;;;10.30;;
69594;SDS011;56800;52.142;5.364;2024-01-30T02:05:08;15.88;;;9.60;;
69594;SDS011;56800;52.142;5.364;2024-01-30T02:07:35;17.40;;;8.88;;
69594;SDS011;56800;52.142;5.364;2024-01-30T02:10:02;17.20;;;9.10;;
69594;SDS011;56800;52.142;5.364;2024-01-30T02:12:30;15.90;;;9.57;;
69594;SDS011;56800;52.142;5.364;2024-01-30T02:14:56;14.98;;;9.45;;
69594;SDS011;56800;52.142;5.364;2024-01-30T02:17:24;14.57;;;9.45;;
69594;SDS011;56800;52.142;5.364;2024-01-30T02:19:51;16.02;;;9.88;;
69594;SDS011;56800;52.142;5.364;2024-01-30T02:22:19;16.77;;;9.97;;
69594;SDS011;56800;52.142;5.364;2024-01-30T02:24:46;16.63;;;9.65;;
69594;SDS011;56800;52.142;5.364;2024-01-30T02:27:13;15.75;;;9.70;;
69594;SDS011;56800;52.142;5.364;2024-01-30T02:29:40;15.85;;;9.82;;
69594;SDS011;56800;52.142;5.364;2024-01-30T02:32:06;13.95;;;9.02;;
69594;SDS011;56800;52.142;5.364;2024-01-30T02:34:33;18.73;;;8.90;;
69594;SDS011;56800;52.142;5.364;2024-01-30T02:37:00;16.20;;;9.85;;
69594;SDS011;56800;52.142;5.364;2024-01-30T02:39:27;15.18;;;8.82;;
69594;SDS011;56800;52.142;5.364;2024-01-30T02:41:54;15.65;;;9.43;;
69594;SDS011;56800;52.142;5.364;2024-01-30T02:44:21;17.17;;;9.27;;
69594;SDS011;56800;52.142;5.364;2024-01-30T02:46:47;13.63;;;8.87;;
69594;SDS011;56800;52.142;5.364;2024-01-30T02:49:14;15.23;;;8.65;;
69594;SDS011;56800;52.142;5.364;2024-01-30T02:51:41;15.75;;;9.18;;
69594;SDS011;56800;52.142;5.364;2024-01-30T02:54:07;15.75;;;9.32;;
69594;SDS011;56800;52.142;5.364;2024-01-30T02:56:34;14.85;;;8.95;;
69594;SDS011;56800;52.142;5.364;2024-01-30T02:59:01;17.13;;;9.30;;
69594;SDS011;56800;52.142;5.364;2024-01-30T03:01:28;17.42;;;9.85;;
69594;SDS011;56800;52.142;5.364;2024-01-30T03:03:55;15.18;;;9.32;;
69594;SDS011;56800;52.142;5.364;2024-01-30T03:06:21;14.50;;;8.98;;
69594;SDS011;56800;52.142;5.364;2024-01-30T03:08:49;13.88;;;9.48;;
69594;SDS011;56800;52.142;5.364;2024-01-30T03:11:15;17.27;;;10.07;;
69594;SDS011;56800;52.142;5.364;2024-01-30T03:13:42;16.85;;;9.13;;
69594;SDS011;56800;52.142;5.364;2024-01-30T03:16:09;16.35;;;9.60;;
69594;SDS011;56800;52.142;5.364;2024-01-30T03:18:36;16.88;;;9.50;;
69594;SDS011;56800;52.142;5.364;2024-01-30T03:21:02;17.23;;;9.75;;
69594;SDS011;56800;52.142;5.364;2024-01-30T03:23:29;20.40;;;10.73;;
69594;SDS011;56800;52.142;5.364;2024-01-30T03:25:58;20.95;;;10.13;;
69594;SDS011;56800;52.142;5.364;2024-01-30T03:28:25;22.45;;;10.73;;
69594;SDS011;56800;52.142;5.364;2024-01-30T03:30:52;17.00;;;10.05;;
69594;SDS011;56800;52.142;5.364;2024-01-30T03:33:19;16.40;;;10.60;;
69594;SDS011;56800;52.142;5.364;2024-01-30T03:35:45;17.83;;;10.90;;
69594;SDS011;56800;52.142;5.364;2024-01-30T03:38:12;18.80;;;11.77;;
69594;SDS011;56800;52.142;5.364;2024-01-30T03:40:39;21.58;;;11.50;;
69594;SDS011;56800;52.142;5.364;2024-01-30T03:43:05;21.42;;;12.10;;
69594;SDS011;56800;52.142;5.364;2024-01-30T03:45:32;21.17;;;11.23;;
69594;SDS011;56800;52.142;5.364;2024-01-30T03:47:59;17.60;;;10.57;;
69594;SDS011;56800;52.142;5.364;2024-01-30T03:50:26;19.67;;;11.30;;
69594;SDS011;56800;52.142;5.364;2024-01-30T03:52:54;18.02;;;11.13;;
69594;SDS011;56800;52.142;5.364;2024-01-30T03:55:21;21.90;;;11.15;;
69594;SDS011;56800;52.142;5.364;2024-01-30T03:57:47;21.17;;;11.60;;
69594;SDS011;56800;52.142;5.364;2024-01-30T04:00:14;18.03;;;11.30;;
69594;SDS011;56800;52.142;5.364;2024-01-30T04:02:41;19.35;;;10.85;;
69594;SDS011;56800;52.142;5.364;2024-01-30T04:05:08;21.05;;;10.25;;
69594;SDS011;56800;52.142;5.364;2024-01-30T04:07:35;19.17;;;11.15;;
69594;SDS011;56800;52.142;5.364;2024-01-30T04:10:02;17.85;;;11.00;;
69594;SDS011;56800;52.142;5.364;2024-01-30T04:12:31;17.47;;;10.90;;
69594;SDS011;56800;52.142;5.364;2024-01-30T04:14:58;18.73;;;10.07;;
69594;SDS011;56800;52.142;5.364;2024-01-30T04:17:25;17.08;;;10.90;;
69594;SDS011;56800;52.142;5.364;2024-01-30T04:19:52;18.15;;;10.10;;
69594;SDS011;56800;52.142;5.364;2024-01-30T04:22:19;17.23;;;9.38;;
69594;SDS011;56800;52.142;5.364;2024-01-30T04:24:45;14.53;;;8.67;;
69594;SDS011;56800;52.142;5.364;2024-01-30T04:27:12;13.00;;;8.88;;
69594;SDS011;56800;52.142;5.364;2024-01-30T04:29:39;15.25;;;9.18;;
69594;SDS011;56800;52.142;5.364;2024-01-30T04:32:06;15.75;;;9.50;;
69594;SDS011;56800;52.142;5.364;2024-01-30T04:34:33;16.25;;;9.70;;
69594;SDS011;56800;52.142;5.364;2024-01-30T04:36:59;16.20;;;8.53;;
69594;SDS011;56800;52.142;5.364;2024-01-30T04:39:26;15.98;;;8.45;;
69594;SDS011;56800;52.142;5.364;2024-01-30T04:41:53;18.30;;;8.85;;
69594;SDS011;56800;52.142;5.364;2024-01-30T04:44:20;14.20;;;8.50;;
69594;SDS011;56800;52.142;5.364;2024-01-30T04:46:47;12.75;;;7.80;;
69594;SDS011;56800;52.142;5.364;2024-01-30T04:49:13;12.97;;;8.23;;
69594;SDS011;56800;52.142;5.364;2024-01-30T04:51:40;17.10;;;8.27;;
69594;SDS011;56800;52.142;5.364;2024-01-30T04:54:07;14.35;;;8.45;;
69594;SDS011;56800;52.142;5.364;2024-01-30T04:56:34;15.07;;;8.63;;
69594;SDS011;56800;52.142;5.364;2024-01-30T04:59:02;14.15;;;7.85;;
69594;SDS011;56800;52.142;5.364;2024-01-30T05:01:29;16.47;;;7.87;;
69594;SDS011;56800;52.142;5.364;2024-01-30T05:03:56;14.77;;;8.48;;
69594;SDS011;56800;52.142;5.364;2024-01-30T05:06:26;11.93;;;8.02;;
69594;SDS011;56800;52.142;5.364;2024-01-30T05:08:54;15.52;;;8.00;;
69594;SDS011;56800;52.142;5.364;2024-01-30T05:11:20;12.70;;;7.72;;
69594;SDS011;56800;52.142;5.364;2024-01-30T05:13:47;13.67;;;7.63;;
69594;SDS011;56800;52.142;5.364;2024-01-30T05:16:14;12.38;;;7.72;;
69594;SDS011;56800;52.142;5.364;2024-01-30T05:18:40;13.05;;;7.80;;
69594;SDS011;56800;52.142;5.364;2024-01-30T05:21:07;13.35;;;7.43;;
69594;SDS011;56800;52.142;5.364;2024-01-30T05:23:34;14.00;;;7.45;;
69594;SDS011;56800;52.142;5.364;2024-01-30T05:26:01;11.60;;;7.47;;
69594;SDS011;56800;52.142;5.364;2024-01-30T05:28:29;17.33;;;8.07;;
69594;SDS011;56800;52.142;5.364;2024-01-30T05:30:56;12.43;;;7.22;;
69594;SDS011;56800;52.142;5.364;2024-01-30T05:33:23;15.38;;;8.43;;
69594;SDS011;56800;52.142;5.364;2024-01-30T05:35:50;13.13;;;7.45;;
69594;SDS011;56800;52.142;5.364;2024-01-30T05:38:20;12.17;;;7.13;;
69594;SDS011;56800;52.142;5.364;2024-01-30T05:40:47;16.95;;;7.93;;
69594;SDS011;56800;52.142;5.364;2024-01-30T05:43:13;13.30;;;7.35;;
69594;SDS011;56800;52.142;5.364;2024-01-30T05:45:40;12.15;;;7.40;;
69594;SDS011;56800;52.142;5.364;2024-01-30T05:48:07;14.07;;;6.47;;
69594;SDS011;56800;52.142;5.364;2024-01-30T05:50:34;15.50;;;7.23;;
69594;SDS011;56800;52.142;5.364;2024-01-30T05:53:01;13.45;;;7.55;;
69594;SDS011;56800;52.142;5.364;2024-01-30T05:55:27;10.77;;;6.63;;
69594;SDS011;56800;52.142;5.364;2024-01-30T05:57:54;16.92;;;7.13;;
69594;SDS011;56800;52.142;5.364;2024-01-30T06:00:21;12.43;;;7.03;;
69594;SDS011;56800;52.142;5.364;2024-01-30T06:02:48;13.10;;;7.67;;
69594;SDS011;56800;52.142;5.364;2024-01-30T06:05:15;11.40;;;7.05;;
69594;SDS011;56800;52.142;5.364;2024-01-30T06:07:42;12.48;;;7.55;;
69594;SDS011;56800;52.142;5.364;2024-01-30T06:10:09;14.88;;;6.97;;
69594;SDS011;56800;52.142;5.364;2024-01-30T06:12:35;10.30;;;6.72;;
69594;SDS011;56800;52.142;5.364;2024-01-30T06:15:02;14.30;;;7.30;;
69594;SDS011;56800;52.142;5.364;2024-01-30T06:17:30;16.90;;;6.90;;
69594;SDS011;56800;52.142;5.364;2024-01-30T06:19:56;13.18;;;6.78;;
69594;SDS011;56800;52.142;5.364;2024-01-30T06:22:23;14.07;;;7.05;;
69594;SDS011;56800;52.142;5.364;2024-01-30T06:24:50;17.20;;;7.18;;
69594;SDS011;56800;52.142;5.364;2024-01-30T06:27:17;10.53;;;6.70;;
69594;SDS011;56800;52.142;5.364;2024-01-30T06:29:44;11.15;;;6.70;;
69594;SDS011;56800;52.142;5.364;2024-01-30T06:32:10;16.80;;;7.35;;
69594;SDS011;56800;52.142;5.364;2024-01-30T06:34:37;13.75;;;7.38;;
69594;SDS011;56800;52.142;5.364;2024-01-30T06:37:06;10.18;;;6.60;;
69594;SDS011;56800;52.142;5.364;2024-01-30T06:39:32;11.73;;;6.70;;
69594;SDS011;56800;52.142;5.364;2024-01-30T06:41:59;11.98;;;7.15;;
69594;SDS011;56800;52.142;5.364;2024-01-30T06:44:26;11.65;;;6.68;;
69594;SDS011;56800;52.142;5.364;2024-01-30T06:46:55;12.93;;;6.80;;
69594;SDS011;56800;52.142;5.364;2024-01-30T06:49:22;14.68;;;6.28;;
69594;SDS011;56800;52.142;5.364;2024-01-30T06:51:49;11.77;;;6.23;;
69594;SDS011;56800;52.142;5.364;2024-01-30T06:54:16;13.32;;;7.05;;
69594;SDS011;56800;52.142;5.364;2024-01-30T06:56:42;12.48;;;7.10;;
69594;SDS011;56800;52.142;5.364;2024-01-30T06:59:09;9.63;;;6.18;;
69594;SDS011;56800;52.142;5.364;2024-01-30T07:01:36;10.63;;;6.68;;
69594;SDS011;56800;52.142;5.364;2024-01-30T07:04:03;15.37;;;6.53;;
69594;SDS011;56800;52.142;5.364;2024-01-30T07:06:30;16.27;;;6.57;;
69594;SDS011;56800;52.142;5.364;2024-01-30T07:08:57;12.52;;;6.68;;
69594;SDS011;56800;52.142;5.364;2024-01-30T07:11:23;10.80;;;6.22;;
69594;SDS011;56800;52.142;5.364;2024-01-30T07:13:51;13.00;;;7.13;;
69594;SDS011;56800;52.142;5.364;2024-01-30T07:16:17;11.47;;;6.37;;
69594;SDS011;56800;52.142;5.364;2024-01-30T07:18:44;11.30;;;7.00;;
69594;SDS011;56800;52.142;5.364;2024-01-30T07:21:11;13.73;;;7.32;;
69594;SDS011;56800;52.142;5.364;2024-01-30T07:23:38;18.05;;;7.07;;
69594;SDS011;56800;52.142;5.364;2024-01-30T07:26:05;13.38;;;6.40;;
69594;SDS011;56800;52.142;5.364;2024-01-30T07:28:32;17.17;;;7.10;;
69594;SDS011;56800;52.142;5.364;2024-01-30T07:31:00;12.02;;;7.10;;
69594;SDS011;56800;52.142;5.364;2024-01-30T07:33:27;12.02;;;6.57;;
69594;SDS011;56800;52.142;5.364;2024-01-30T07:35:54;11.43;;;6.40;;
69594;SDS011;56800;52.142;5.364;2024-01-30T07:38:21;11.20;;;6.57;;
69594;SDS011;56800;52.142;5.364;2024-01-30T07:40:47;10.40;;;6.43;;
69594;SDS011;56800;52.142;5.364;2024-01-30T07:43:14;11.50;;;6.40;;
69594;SDS011;56800;52.142;5.364;2024-01-30T07:45:41;14.20;;;7.03;;
69594;SDS011;56800;52.142;5.364;2024-01-30T07:48:08;15.75;;;6.68;;
69594;SDS011;56800;52.142;5.364;2024-01-30T07:50:35;11.77;;;6.60;;
69594;SDS011;56800;52.142;5.364;2024-01-30T07:53:01;13.90;;;6.67;;
69594;SDS011;56800;52.142;5.364;2024-01-30T07:55:28;15.05;;;6.82;;
69594;SDS011;56800;52.142;5.364;2024-01-30T07:57:57;13.50;;;7.07;;
69594;SDS011;56800;52.142;5.364;2024-01-30T08:00:25;11.70;;;6.40;;
69594;SDS011;56800;52.142;5.364;2024-01-30T08:02:52;14.15;;;6.47;;
69594;SDS011;56800;52.142;5.364;2024-01-30T08:05:22;12.43;;;6.60;;
69594;SDS011;56800;52.142;5.364;2024-01-30T08:07:50;13.80;;;6.38;;
69594;SDS011;56800;52.142;5.364;2024-01-30T08:10:17;11.90;;;7.00;;
69594;SDS011;56800;52.142;5.364;2024-01-30T08:12:47;12.93;;;7.18;;
69594;SDS011;56800;52.142;5.364;2024-01-30T08:15:14;12.43;;;6.93;;
69594;SDS011;56800;52.142;5.364;2024-01-30T08:17:40;10.80;;;6.50;;
69594;SDS011;56800;52.142;5.364;2024-01-30T08:20:07;13.57;;;6.75;;
69594;SDS011;56800;52.142;5.364;2024-01-30T08:22:40;13.23;;;6.70;;
69594;SDS011;56800;52.142;5.364;2024-01-30T08:25:07;14.55;;;7.13;;
69594;SDS011;56800;52.142;5.364;2024-01-30T08:27:35;18.27;;;6.72;;
69594;SDS011;56800;52.142;5.364;2024-01-30T08:30:05;15.90;;;7.23;;
69594;SDS011;56800;52.142;5.364;2024-01-30T08:32:33;12.75;;;6.60;;
69594;SDS011;56800;52.142;5.364;2024-01-30T08:35:00;18.15;;;7.15;;
69594;SDS011;56800;52.142;5.364;2024-01-30T08:37:30;14.45;;;6.47;;
69594;SDS011;56800;52.142;5.364;2024-01-30T08:39:57;16.60;;;7.20;;
69594;SDS011;56800;52.142;5.364;2024-01-30T08:42:23;19.80;;;6.80;;
69594;SDS011;56800;52.142;5.364;2024-01-30T08:44:51;16.50;;;6.75;;
69594;SDS011;56800;52.142;5.364;2024-01-30T08:47:19;15.52;;;7.30;;
69594;SDS011;56800;52.142;5.364;2024-01-30T08:49:46;14.73;;;6.95;;
69594;SDS011;56800;52.142;5.364;2024-01-30T08:52:12;17.58;;;7.68;;
69594;SDS011;56800;52.142;5.364;2024-01-30T08:54:39;22.10;;;7.67;;
69594;SDS011;56800;52.142;5.364;2024-01-30T08:57:06;18.23;;;7.60;;
69594;SDS011;56800;52.142;5.364;2024-01-30T08:59:33;16.63;;;7.40;;
69594;SDS011;56800;52.142;5.364;2024-01-30T09:02:00;14.88;;;5.75;;
69594;SDS011;56800;52.142;5.364;2024-01-30T09:04:37;20.77;;;7.03;;
69594;SDS011;56800;52.142;5.364;2024-01-30T09:07:05;15.40;;;6.63;;
69594;SDS011;56800;52.142;5.364;2024-01-30T09:09:35;14.95;;;6.72;;
69594;SDS011;56800;52.142;5.364;2024-01-30T09:12:03;16.73;;;7.15;;
69594;SDS011;56800;52.142;5.364;2024-01-30T09:14:35;17.98;;;7.20;;
69594;SDS011;56800;52.142;5.364;2024-01-30T09:17:02;10.95;;;6.55;;
69594;SDS011;56800;52.142;5.364;2024-01-30T09:19:30;16.70;;;7.00;;
69594;SDS011;56800;52.142;5.364;2024-01-30T09:21:57;13.73;;;6.93;;
69594;SDS011;56800;52.142;5.364;2024-01-30T09:24:25;14.70;;;5.85;;
69594;SDS011;56800;52.142;5.364;2024-01-30T09:26:52;13.48;;;7.00;;
69594;SDS011;56800;52.142;5.364;2024-01-30T09:29:19;17.73;;;6.82;;
69594;SDS011;56800;52.142;5.364;2024-01-30T09:31:47;14.83;;;6.70;;
69594;SDS011;56800;52.142;5.364;2024-01-30T09:34:13;13.57;;;6.90;;
69594;SDS011;56800;52.142;5.364;2024-01-30T09:36:40;17.83;;;7.30;;
69594;SDS011;56800;52.142;5.364;2024-01-30T09:39:07;18.67;;;6.68;;
69594;SDS011;56800;52.142;5.364;2024-01-30T09:41:35;13.63;;;6.90;;
69594;SDS011;56800;52.142;5.364;2024-01-30T09:44:08;20.03;;;7.03;;
69594;SDS011;56800;52.142;5.364;2024-01-30T09:46:37;19.73;;;6.78;;
69594;SDS011;56800;52.142;5.364;2024-01-30T09:49:05;13.90;;;6.75;;
69594;SDS011;56800;52.142;5.364;2024-01-30T09:51:33;17.17;;;6.55;;
69594;SDS011;56800;52.142;5.364;2024-01-30T09:54:01;14.75;;;7.00;;
69594;SDS011;56800;52.142;5.364;2024-01-30T09:56:29;18.83;;;6.77;;
69594;SDS011;56800;52.142;5.364;2024-01-30T09:58:56;18.30;;;7.22;;
69594;SDS011;56800;52.142;5.364;2024-01-30T10:01:22;15.75;;;7.35;;
69594;SDS011;56800;52.142;5.364;2024-01-30T10:03:50;15.30;;;6.55;;
69594;SDS011;56800;52.142;5.364;2024-01-30T10:06:19;14.73;;;7.35;;
69594;SDS011;56800;52.142;5.364;2024-01-30T10:08:50;15.47;;;6.90;;
69594;SDS011;56800;52.142;5.364;2024-01-30T10:11:16;15.68;;;6.75;;
69594;SDS011;56800;52.142;5.364;2024-01-30T10:13:43;13.95;;;7.05;;
69594;SDS011;56800;52.142;5.364;2024-01-30T10:16:10;16.52;;;6.38;;
69594;SDS011;56800;52.142;5.364;2024-01-30T10:18:40;16.88;;;7.28;;
69594;SDS011;56800;52.142;5.364;2024-01-30T10:21:10;14.47;;;6.13;;
69594;SDS011;56800;52.142;5.364;2024-01-30T10:23:37;15.95;;;7.30;;
69594;SDS011;56800;52.142;5.364;2024-01-30T10:26:04;19.25;;;7.05;;
69594;SDS011;56800;52.142;5.364;2024-01-30T10:28:33;11.63;;;5.90;;
69594;SDS011;56800;52.142;5.364;2024-01-30T10:31:00;21.20;;;6.95;;
69594;SDS011;56800;52.142;5.364;2024-01-30T10:33:32;13.00;;;7.27;;
69594;SDS011;56800;52.142;5.364;2024-01-30T10:36:03;13.43;;;6.18;;
69594;SDS011;56800;52.142;5.364;2024-01-30T10:38:31;13.23;;;6.55;;
69594;SDS011;56800;52.142;5.364;2024-01-30T10:40:59;12.70;;;6.28;;
69594;SDS011;56800;52.142;5.364;2024-01-30T10:43:35;18.80;;;6.55;;
69594;SDS011;56800;52.142;5.364;2024-01-30T10:46:10;13.67;;;6.07;;
69594;SDS011;56800;52.142;5.364;2024-01-30T10:48:42;14.80;;;7.20;;
69594;SDS011;56800;52.142;5.364;2024-01-30T10:51:13;13.43;;;6.35;;
69594;SDS011;56800;52.142;5.364;2024-01-30T10:53:40;13.57;;;6.32;;
69594;SDS011;56800;52.142;5.364;2024-01-30T10:56:09;16.50;;;6.43;;
69594;SDS011;56800;52.142;5.364;2024-01-30T10:58:37;14.27;;;6.17;;
69594;SDS011;56800;52.142;5.364;2024-01-30T11:01:04;13.85;;;6.43;;
69594;SDS011;56800;52.142;5.364;2024-01-30T11:03:32;13.13;;;5.32;;
69594;SDS011;56800;52.142;5.364;2024-01-30T11:06:02;10.10;;;5.28;;
69594;SDS011;56800;52.142;5.364;2024-01-30T11:08:31;10.32;;;5.55;;
69594;SDS011;56800;52.142;5.364;2024-01-30T11:10:58;15.53;;;4.83;;
69594;SDS011;56800;52.142;5.364;2024-01-30T11:13:31;8.60;;;5.00;;
69594;SDS011;56800;52.142;5.364;2024-01-30T11:16:02;11.93;;;5.18;;
69594;SDS011;56800;52.142;5.364;2024-01-30T11:18:32;11.15;;;5.00;;
69594;SDS011;56800;52.142;5.364;2024-01-30T11:21:01;9.18;;;4.38;;
69594;SDS011;56800;52.142;5.364;2024-01-30T11:23:31;12.97;;;4.23;;
69594;SDS011;56800;52.142;5.364;2024-01-30T11:25:59;11.18;;;3.83;;
69594;SDS011;56800;52.142;5.364;2024-01-30T11:28:31;9.32;;;3.47;;
69594;SDS011;56800;52.142;5.364;2024-01-30T11:31:06;8.23;;;2.90;;
69594;SDS011;56800;52.142;5.364;2024-01-30T11:33:34;8.02;;;2.60;;
69594;SDS011;56800;52.142;5.364;2024-01-30T11:36:01;8.97;;;3.40;;
69594;SDS011;56800;52.142;5.364;2024-01-30T11:38:29;10.90;;;3.45;;
69594;SDS011;56800;52.142;5.364;2024-01-30T11:40:56;8.35;;;2.95;;
69594;SDS011;56800;52.142;5.364;2024-01-30T11:43:25;6.70;;;2.05;;
69594;SDS011;56800;52.142;5.364;2024-01-30T11:45:52;9.38;;;2.20;;
69594;SDS011;56800;52.142;5.364;2024-01-30T11:48:19;6.87;;;1.87;;
69594;SDS011;56800;52.142;5.364;2024-01-30T11:50:46;5.03;;;1.70;;
69594;SDS011;56800;52.142;5.364;2024-01-30T11:53:13;10.93;;;1.70;;
69594;SDS011;56800;52.142;5.364;2024-01-30T11:55:39;8.40;;;1.63;;
69594;SDS011;56800;52.142;5.364;2024-01-30T11:58:06;7.65;;;2.00;;
69594;SDS011;56800;52.142;5.364;2024-01-30T12:00:33;5.03;;;1.63;;
69594;SDS011;56800;52.142;5.364;2024-01-30T12:03:01;7.78;;;1.63;;
69594;SDS011;56800;52.142;5.364;2024-01-30T12:05:30;7.45;;;1.63;;
69594;SDS011;56800;52.142;5.364;2024-01-30T12:07:57;6.15;;;1.60;;
69594;SDS011;56800;52.142;5.364;2024-01-30T12:10:28;9.65;;;1.60;;
69594;SDS011;56800;52.142;5.364;2024-01-30T12:12:55;9.73;;;1.77;;
69594;SDS011;56800;52.142;5.364;2024-01-30T12:15:23;7.45;;;1.83;;
69594;SDS011;56800;52.142;5.364;2024-01-30T12:17:50;10.25;;;2.40;;
69594;SDS011;56800;52.142;5.364;2024-01-30T12:20:18;7.32;;;1.70;;
69594;SDS011;56800;52.142;5.364;2024-01-30T12:22:46;5.80;;;1.70;;
69594;SDS011;56800;52.142;5.364;2024-01-30T12:25:15;6.67;;;2.03;;
69594;SDS011;56800;52.142;5.364;2024-01-30T12:27:44;6.38;;;2.30;;
69594;SDS011;56800;52.142;5.364;2024-01-30T12:30:12;9.25;;;2.40;;
69594;SDS011;56800;52.142;5.364;2024-01-30T12:32:41;7.10;;;2.17;;
69594;SDS011;56800;52.142;5.364;2024-01-30T12:35:13;9.13;;;2.30;;
69594;SDS011;56800;52.142;5.364;2024-01-30T12:37:41;6.50;;;2.07;;
69594;SDS011;56800;52.142;5.364;2024-01-30T12:40:10;10.07;;;2.20;;
69594;SDS011;56800;52.142;5.364;2024-01-30T12:42:42;7.45;;;2.17;;
69594;SDS011;56800;52.142;5.364;2024-01-30T12:45:15;5.93;;;1.98;;
69594;SDS011;56800;52.142;5.364;2024-01-30T12:47:46;5.45;;;2.08;;
69594;SDS011;56800;52.142;5.364;2024-01-30T12:50:13;6.60;;;1.80;;
69594;SDS011;56800;52.142;5.364;2024-01-30T12:52:42;5.72;;;1.73;;
69594;SDS011;56800;52.142;5.364;2024-01-30T12:55:12;8.07;;;2.40;;
69594;SDS011;56800;52.142;5.364;2024-01-30T12:57:39;7.28;;;2.30;;
69594;SDS011;56800;52.142;5.364;2024-01-30T13:00:06;6.40;;;2.10;;
69594;SDS011;56800;52.142;5.364;2024-01-30T13:02:34;10.07;;;2.10;;
69594;SDS011;56800;52.142;5.364;2024-01-30T13:05:03;4.93;;;2.10;;
69594;SDS011;56800;52.142;5.364;2024-01-30T13:07:30;6.93;;;2.33;;
69594;SDS011;56800;52.142;5.364;2024-01-30T13:09:57;4.57;;;1.85;;
69594;SDS011;56800;52.142;5.364;2024-01-30T13:12:30;8.00;;;2.47;;
69594;SDS011;56800;52.142;5.364;2024-01-30T13:14:58;8.67;;;1.70;;
69594;SDS011;56800;52.142;5.364;2024-01-30T13:17:30;6.15;;;1.67;;
69594;SDS011;56800;52.142;5.364;2024-01-30T13:19:57;9.10;;;1.50;;
69594;SDS011;56800;52.142;5.364;2024-01-30T13:22:35;7.18;;;1.08;;
69594;SDS011;56800;52.142;5.364;2024-01-30T13:25:04;5.65;;;1.30;;
69594;SDS011;56800;52.142;5.364;2024-01-30T13:27:32;3.93;;;1.07;;
69594;SDS011;56800;52.142;5.364;2024-01-30T13:29:58;4.30;;;1.13;;
69594;SDS011;56800;52.142;5.364;2024-01-30T13:32:25;3.80;;;1.10;;
69594;SDS011;56800;52.142;5.364;2024-01-30T13:34:52;5.03;;;1.13;;
69594;SDS011;56800;52.142;5.364;2024-01-30T13:37:19;3.85;;;1.30;;
69594;SDS011;56800;52.142;5.364;2024-01-30T13:39:45;6.77;;;1.30;;
69594;SDS011;56800;52.142;5.364;2024-01-30T13:42:12;4.53;;;1.20;;
69594;SDS011;56800;52.142;5.364;2024-01-30T13:44:39;7.80;;;1.30;;
69594;SDS011;56800;52.142;5.364;2024-01-30T13:47:06;4.07;;;1.10;;
69594;SDS011;56800;52.142;5.364;2024-01-30T13:49:32;4.93;;;1.33;;
69594;SDS011;56800;52.142;5.364;2024-01-30T13:51:59;5.53;;;1.57;;
69594;SDS011;56800;52.142;5.364;2024-01-30T13:54:26;6.75;;;1.35;;
69594;SDS011;56800;52.142;5.364;2024-01-30T13:56:53;4.30;;;1.20;;
69594;SDS011;56800;52.142;5.364;2024-01-30T13:59:19;5.97;;;1.35;;
69594;SDS011;56800;52.142;5.364;2024-01-30T14:01:50;5.03;;;1.60;;
69594;SDS011;56800;52.142;5.364;2024-01-30T14:04:17;6.47;;;1.40;;
69594;SDS011;56800;52.142;5.364;2024-01-30T14:06:44;4.70;;;1.23;;
69594;SDS011;56800;52.142;5.364;2024-01-30T14:09:22;6.97;;;2.08;;
69594;SDS011;56800;52.142;5.364;2024-01-30T14:11:49;6.97;;;1.85;;
69594;SDS011;56800;52.142;5.364;2024-01-30T14:14:15;6.57;;;1.92;;
69594;SDS011;56800;52.142;5.364;2024-01-30T14:16:42;3.40;;;1.37;;
69594;SDS011;56800;52.142;5.364;2024-01-30T14:19:09;7.70;;;1.55;;
69594;SDS011;56800;52.142;5.364;2024-01-30T14:21:36;8.20;;;1.50;;
69594;SDS011;56800;52.142;5.364;2024-01-30T14:24:03;6.55;;;1.27;;
69594;SDS011;56800;52.142;5.364;2024-01-30T14:26:30;7.25;;;1.45;;
69594;SDS011;56800;52.142;5.364;2024-01-30T14:28:57;5.33;;;1.40;;
69594;SDS011;56800;52.142;5.364;2024-01-30T14:31:24;6.25;;;1.45;;
69594;SDS011;56800;52.142;5.364;2024-01-30T14:33:51;5.85;;;1.70;;
69594;SDS011;56800;52.142;5.364;2024-01-30T14:36:18;7.15;;;1.50;;
69594;SDS011;56800;52.142;5.364;2024-01-30T14:38:46;6.95;;;1.52;;